sensor_id;sensor_type;location;lat;lon;timestamp;pressure;altitude;pressure_sealevel;temperature
68510;BMP180;55512;50.102;19.958;2022-09-01T00:01:49;99089.60;;;15.60
68510;BMP180;55512;50.102;19.958;2022-09-01T00:04:19;99088.40;;;15.60
68510;BMP180;55512;50.102;19.958;2022-09-01T00:06:46;99084.60;;;15.60
68510;BMP180;55512;50.102;19.958;2022-09-01T00:09:18;99079.60;;;15.58
68510;BMP180;55512;50.102;19.958;2022-09-01T00:11:50;99077.60;;;15.60
68510;BMP180;55512;50.102;19.958;2022-09-01T00:14:30;99078.80;;;15.60
68510;BMP180;55512;50.102;19.958;2022-09-01T00:17:01;99077.20;;;15.60
68510;BMP180;55512;50.102;19.958;2022-09-01T00:19:28;99073.00;;;15.66
68510;BMP180;55512;50.102;19.958;2022-09-01T00:21:54;99077.20;;;15.70
68510;BMP180;55512;50.102;19.958;2022-09-01T00:24:21;99075.40;;;15.70
68510;BMP180;55512;50.102;19.958;2022-09-01T00:26:47;99070.00;;;15.70
68510;BMP180;55512;50.102;19.958;2022-09-01T00:29:14;99073.80;;;15.60
68510;BMP180;55512;50.102;19.958;2022-09-01T00:31:41;99073.60;;;15.60
68510;BMP180;55512;50.102;19.958;2022-09-01T00:34:07;99072.80;;;15.60
68510;BMP180;55512;50.102;19.958;2022-09-01T00:36:33;99075.40;;;15.54
68510;BMP180;55512;50.102;19.958;2022-09-01T00:38:58;99079.60;;;15.50
68510;BMP180;55512;50.102;19.958;2022-09-01T00:41:29;99083.00;;;15.50
68510;BMP180;55512;50.102;19.958;2022-09-01T00:43:59;99078.40;;;15.50
68510;BMP180;55512;50.102;19.958;2022-09-01T00:46:30;99075.40;;;15.50
68510;BMP180;55512;50.102;19.958;2022-09-01T00:49:25;99072.00;;;15.50
68510;BMP180;55512;50.102;19.958;2022-09-01T00:51:58;99070.80;;;15.50
68510;BMP180;55512;50.102;19.958;2022-09-01T00:54:32;99072.00;;;15.50
68510;BMP180;55512;50.102;19.958;2022-09-01T00:57:01;99073.20;;;15.50
68510;BMP180;55512;50.102;19.958;2022-09-01T00:59:27;99067.20;;;15.50
68510;BMP180;55512;50.102;19.958;2022-09-01T01:01:54;99069.80;;;15.50
68510;BMP180;55512;50.102;19.958;2022-09-01T01:04:21;99066.60;;;15.50
68510;BMP180;55512;50.102;19.958;2022-09-01T01:06:53;99072.00;;;15.50
68510;BMP180;55512;50.102;19.958;2022-09-01T01:09:29;99072.00;;;15.50
68510;BMP180;55512;50.102;19.958;2022-09-01T01:11:59;99076.60;;;15.50
68510;BMP180;55512;50.102;19.958;2022-09-01T01:14:27;99077.40;;;15.52
68510;BMP180;55512;50.102;19.958;2022-09-01T01:16:55;99079.20;;;15.50
68510;BMP180;55512;50.102;19.958;2022-09-01T01:19:55;99078.20;;;15.56
68510;BMP180;55512;50.102;19.958;2022-09-01T01:23:15;99081.40;;;15.60
68510;BMP180;55512;50.102;19.958;2022-09-01T01:25:56;99078.00;;;15.64
68510;BMP180;55512;50.102;19.958;2022-09-01T01:28:32;99080.80;;;15.60
68510;BMP180;55512;50.102;19.958;2022-09-01T01:31:01;99079.00;;;15.60
68510;BMP180;55512;50.102;19.958;2022-09-01T01:33:37;99079.60;;;15.70
68510;BMP180;55512;50.102;19.958;2022-09-01T01:36:11;99082.60;;;15.70
68510;BMP180;55512;50.102;19.958;2022-09-01T01:38:45;99083.00;;;15.70
68510;BMP180;55512;50.102;19.958;2022-09-01T01:41:13;99081.60;;;15.70
68510;BMP180;55512;50.102;19.958;2022-09-01T01:43:40;99079.00;;;15.70
68510;BMP180;55512;50.102;19.958;2022-09-01T01:46:08;99074.40;;;15.70
68510;BMP180;55512;50.102;19.958;2022-09-01T01:48:40;99074.40;;;15.70
68510;BMP180;55512;50.102;19.958;2022-09-01T01:51:08;99074.80;;;15.70
68510;BMP180;55512;50.102;19.958;2022-09-01T01:53:35;99068.80;;;15.70
68510;BMP180;55512;50.102;19.958;2022-09-01T01:56:01;99066.00;;;15.68
68510;BMP180;55512;50.102;19.958;2022-09-01T01:58:27;99068.00;;;15.62
68510;BMP180;55512;50.102;19.958;2022-09-01T02:00:55;99069.20;;;15.60
68510;BMP180;55512;50.102;19.958;2022-09-01T02:03:26;99069.00;;;15.50
68510;BMP180;55512;50.102;19.958;2022-09-01T02:05:55;99070.40;;;15.50
68510;BMP180;55512;50.102;19.958;2022-09-01T02:08:22;99069.00;;;15.50
68510;BMP180;55512;50.102;19.958;2022-09-01T02:10:53;99070.80;;;15.50
68510;BMP180;55512;50.102;19.958;2022-09-01T02:13:22;99076.60;;;15.50
68510;BMP180;55512;50.102;19.958;2022-09-01T02:16:01;99075.60;;;15.50
68510;BMP180;55512;50.102;19.958;2022-09-01T02:18:36;99079.60;;;15.50
68510;BMP180;55512;50.102;19.958;2022-09-01T02:21:08;99080.60;;;15.50
68510;BMP180;55512;50.102;19.958;2022-09-01T02:23:37;99086.20;;;15.52
68510;BMP180;55512;50.102;19.958;2022-09-01T02:26:05;99083.60;;;15.60
68510;BMP180;55512;50.102;19.958;2022-09-01T02:28:36;99074.20;;;15.60
68510;BMP180;55512;50.102;19.958;2022-09-01T02:31:05;99081.20;;;15.70
68510;BMP180;55512;50.102;19.958;2022-09-01T02:33:34;99080.80;;;15.70
68510;BMP180;55512;50.102;19.958;2022-09-01T02:36:06;99080.20;;;15.80
68510;BMP180;55512;50.102;19.958;2022-09-01T02:38:33;99077.60;;;15.90
68510;BMP180;55512;50.102;19.958;2022-09-01T02:41:01;99078.20;;;15.90
68510;BMP180;55512;50.102;19.958;2022-09-01T02:43:29;99082.40;;;15.90
68510;BMP180;55512;50.102;19.958;2022-09-01T02:45:58;99079.40;;;15.90
68510;BMP180;55512;50.102;19.958;2022-09-01T02:48:32;99080.60;;;15.90
68510;BMP180;55512;50.102;19.958;2022-09-01T02:51:07;99082.60;;;15.90
68510;BMP180;55512;50.102;19.958;2022-09-01T02:53:34;99082.20;;;15.80
68510;BMP180;55512;50.102;19.958;2022-09-01T02:56:06;99080.60;;;15.70
68510;BMP180;55512;50.102;19.958;2022-09-01T02:58:41;99076.20;;;15.60
68510;BMP180;55512;50.102;19.958;2022-09-01T03:01:26;99077.60;;;15.60
68510;BMP180;55512;50.102;19.958;2022-09-01T03:03:59;99072.00;;;15.50
68510;BMP180;55512;50.102;19.958;2022-09-01T03:06:27;99067.60;;;15.40
68510;BMP180;55512;50.102;19.958;2022-09-01T03:08:57;99067.40;;;15.40
68510;BMP180;55512;50.102;19.958;2022-09-01T03:11:28;99063.40;;;15.40
68510;BMP180;55512;50.102;19.958;2022-09-01T03:13:54;99060.80;;;15.32
68510;BMP180;55512;50.102;19.958;2022-09-01T03:16:20;99060.60;;;15.40
68510;BMP180;55512;50.102;19.958;2022-09-01T03:18:49;99062.40;;;15.40
68510;BMP180;55512;50.102;19.958;2022-09-01T03:21:15;99063.60;;;15.38
68510;BMP180;55512;50.102;19.958;2022-09-01T03:23:44;99064.60;;;15.30
68510;BMP180;55512;50.102;19.958;2022-09-01T03:26:11;99063.80;;;15.30
68510;BMP180;55512;50.102;19.958;2022-09-01T03:28:37;99067.40;;;15.28
68510;BMP180;55512;50.102;19.958;2022-09-01T03:31:04;99068.20;;;15.20
68510;BMP180;55512;50.102;19.958;2022-09-01T03:33:29;99073.40;;;15.20
68510;BMP180;55512;50.102;19.958;2022-09-01T03:35:55;99070.20;;;15.14
68510;BMP180;55512;50.102;19.958;2022-09-01T03:38:23;99068.00;;;15.10
68510;BMP180;55512;50.102;19.958;2022-09-01T03:40:52;99070.20;;;15.10
68510;BMP180;55512;50.102;19.958;2022-09-01T03:43:20;99070.60;;;15.00
68510;BMP180;55512;50.102;19.958;2022-09-01T03:45:49;99068.40;;;14.90
68510;BMP180;55512;50.102;19.958;2022-09-01T03:48:15;99070.00;;;14.90
68510;BMP180;55512;50.102;19.958;2022-09-01T03:50:44;99067.80;;;14.80
68510;BMP180;55512;50.102;19.958;2022-09-01T03:53:18;99071.60;;;14.80
68510;BMP180;55512;50.102;19.958;2022-09-01T03:55:47;99076.20;;;14.80
68510;BMP180;55512;50.102;19.958;2022-09-01T03:58:16;99076.00;;;14.80
68510;BMP180;55512;50.102;19.958;2022-09-01T04:00:55;99074.00;;;14.80
68510;BMP180;55512;50.102;19.958;2022-09-01T04:03:28;99070.60;;;14.80
68510;BMP180;55512;50.102;19.958;2022-09-01T04:05:56;99071.40;;;14.80
68510;BMP180;55512;50.102;19.958;2022-09-01T04:08:22;99072.00;;;14.82
68510;BMP180;55512;50.102;19.958;2022-09-01T04:10:57;99073.60;;;14.90
68510;BMP180;55512;50.102;19.958;2022-09-01T04:13:30;99078.60;;;14.90
68510;BMP180;55512;50.102;19.958;2022-09-01T04:15:57;99085.60;;;14.86
68510;BMP180;55512;50.102;19.958;2022-09-01T04:18:24;99086.20;;;14.80
68510;BMP180;55512;50.102;19.958;2022-09-01T04:20:53;99083.80;;;14.80
68510;BMP180;55512;50.102;19.958;2022-09-01T04:26:10;99083.00;;;14.70
68510;BMP180;55512;50.102;19.958;2022-09-01T04:28:48;99080.60;;;14.70
68510;BMP180;55512;50.102;19.958;2022-09-01T04:31:19;99084.00;;;14.70
68510;BMP180;55512;50.102;19.958;2022-09-01T04:33:48;99084.00;;;14.70
68510;BMP180;55512;50.102;19.958;2022-09-01T04:36:25;99080.40;;;14.70
68510;BMP180;55512;50.102;19.958;2022-09-01T04:38:57;99080.20;;;14.68
68510;BMP180;55512;50.102;19.958;2022-09-01T04:41:30;99084.40;;;14.64
68510;BMP180;55512;50.102;19.958;2022-09-01T04:44:00;99083.80;;;14.70
68510;BMP180;55512;50.102;19.958;2022-09-01T04:46:30;99087.40;;;14.70
68510;BMP180;55512;50.102;19.958;2022-09-01T04:48:58;99087.80;;;14.70
68510;BMP180;55512;50.102;19.958;2022-09-01T04:51:27;99093.40;;;14.70
68510;BMP180;55512;50.102;19.958;2022-09-01T04:53:56;99097.00;;;14.70
68510;BMP180;55512;50.102;19.958;2022-09-01T04:56:24;99097.00;;;14.70
68510;BMP180;55512;50.102;19.958;2022-09-01T04:58:52;99093.00;;;14.70
68510;BMP180;55512;50.102;19.958;2022-09-01T05:01:26;99091.60;;;14.60
68510;BMP180;55512;50.102;19.958;2022-09-01T05:03:52;99089.80;;;14.64
68510;BMP180;55512;50.102;19.958;2022-09-01T05:06:23;99087.60;;;14.62
68510;BMP180;55512;50.102;19.958;2022-09-01T05:08:49;99087.20;;;14.64
68510;BMP180;55512;50.102;19.958;2022-09-01T05:11:17;99089.40;;;14.70
68510;BMP180;55512;50.102;19.958;2022-09-01T05:13:48;99090.60;;;14.70
68510;BMP180;55512;50.102;19.958;2022-09-01T05:16:18;99091.40;;;14.80
68510;BMP180;55512;50.102;19.958;2022-09-01T05:18:48;99087.20;;;14.80
68510;BMP180;55512;50.102;19.958;2022-09-01T05:21:17;99084.80;;;14.80
68510;BMP180;55512;50.102;19.958;2022-09-01T05:23:45;99084.80;;;14.88
68510;BMP180;55512;50.102;19.958;2022-09-01T05:26:20;99083.00;;;14.88
68510;BMP180;55512;50.102;19.958;2022-09-01T05:28:50;99081.40;;;14.80
68510;BMP180;55512;50.102;19.958;2022-09-01T05:31:18;99079.60;;;14.80
68510;BMP180;55512;50.102;19.958;2022-09-01T05:33:46;99083.40;;;14.80
68510;BMP180;55512;50.102;19.958;2022-09-01T05:36:16;99083.40;;;14.80
68510;BMP180;55512;50.102;19.958;2022-09-01T05:38:43;99082.40;;;14.80
68510;BMP180;55512;50.102;19.958;2022-09-01T05:41:12;99086.60;;;14.90
68510;BMP180;55512;50.102;19.958;2022-09-01T05:43:41;99088.00;;;14.90
68510;BMP180;55512;50.102;19.958;2022-09-01T05:46:13;99087.40;;;14.90
68510;BMP180;55512;50.102;19.958;2022-09-01T05:48:47;99088.00;;;15.00
68510;BMP180;55512;50.102;19.958;2022-09-01T05:51:20;99091.00;;;15.04
68510;BMP180;55512;50.102;19.958;2022-09-01T05:53:47;99090.60;;;15.10
68510;BMP180;55512;50.102;19.958;2022-09-01T05:56:17;99094.40;;;15.20
68510;BMP180;55512;50.102;19.958;2022-09-01T05:58:45;99096.20;;;15.20
68510;BMP180;55512;50.102;19.958;2022-09-01T06:01:18;99094.20;;;15.30
68510;BMP180;55512;50.102;19.958;2022-09-01T06:03:48;99096.80;;;15.40
68510;BMP180;55512;50.102;19.958;2022-09-01T06:06:25;99097.60;;;15.50
68510;BMP180;55512;50.102;19.958;2022-09-01T06:08:52;99100.00;;;15.58
68510;BMP180;55512;50.102;19.958;2022-09-01T06:11:25;99100.80;;;15.60
68510;BMP180;55512;50.102;19.958;2022-09-01T06:13:52;99099.60;;;15.70
68510;BMP180;55512;50.102;19.958;2022-09-01T06:16:21;99099.40;;;15.80
68510;BMP180;55512;50.102;19.958;2022-09-01T06:18:50;99098.00;;;15.84
68510;BMP180;55512;50.102;19.958;2022-09-01T06:21:20;99098.40;;;15.92
68510;BMP180;55512;50.102;19.958;2022-09-01T06:23:47;99097.00;;;16.00
68510;BMP180;55512;50.102;19.958;2022-09-01T06:26:28;99104.20;;;16.10
68510;BMP180;55512;50.102;19.958;2022-09-01T06:29:01;99104.80;;;16.20
68510;BMP180;55512;50.102;19.958;2022-09-01T06:31:30;99106.20;;;16.30
68510;BMP180;55512;50.102;19.958;2022-09-01T06:34:02;99108.00;;;16.40
68510;BMP180;55512;50.102;19.958;2022-09-01T06:36:30;99106.60;;;16.50
68510;BMP180;55512;50.102;19.958;2022-09-01T06:39:01;99112.60;;;16.60
68510;BMP180;55512;50.102;19.958;2022-09-01T06:41:28;99112.00;;;16.60
68510;BMP180;55512;50.102;19.958;2022-09-01T06:43:55;99108.20;;;16.60
68510;BMP180;55512;50.102;19.958;2022-09-01T06:46:22;99115.80;;;16.60
68510;BMP180;55512;50.102;19.958;2022-09-01T06:48:49;99116.20;;;16.60
68510;BMP180;55512;50.102;19.958;2022-09-01T06:51:21;99117.80;;;16.60
68510;BMP180;55512;50.102;19.958;2022-09-01T06:53:50;99119.60;;;16.60
68510;BMP180;55512;50.102;19.958;2022-09-01T06:56:21;99121.20;;;16.60
68510;BMP180;55512;50.102;19.958;2022-09-01T06:58:52;99119.20;;;16.60
68510;BMP180;55512;50.102;19.958;2022-09-01T07:01:20;99126.00;;;16.70
68510;BMP180;55512;50.102;19.958;2022-09-01T07:03:50;99130.40;;;16.78
68510;BMP180;55512;50.102;19.958;2022-09-01T07:06:17;99128.60;;;16.80
68510;BMP180;55512;50.102;19.958;2022-09-01T07:08:45;99136.20;;;16.90
68510;BMP180;55512;50.102;19.958;2022-09-01T07:11:43;99129.40;;;16.90
68510;BMP180;55512;50.102;19.958;2022-09-01T07:14:09;99125.60;;;16.86
68510;BMP180;55512;50.102;19.958;2022-09-01T07:16:37;99132.40;;;16.90
68510;BMP180;55512;50.102;19.958;2022-09-01T07:19:09;99134.00;;;16.98
68510;BMP180;55512;50.102;19.958;2022-09-01T07:21:37;99131.60;;;17.06
68510;BMP180;55512;50.102;19.958;2022-09-01T07:24:03;99136.20;;;17.10
68510;BMP180;55512;50.102;19.958;2022-09-01T07:26:31;99140.00;;;17.20
68510;BMP180;55512;50.102;19.958;2022-09-01T07:28:58;99140.00;;;17.30
68510;BMP180;55512;50.102;19.958;2022-09-01T07:31:37;99140.40;;;17.44
68510;BMP180;55512;50.102;19.958;2022-09-01T07:34:08;99136.80;;;17.60
68510;BMP180;55512;50.102;19.958;2022-09-01T07:36:39;99138.20;;;17.72
68510;BMP180;55512;50.102;19.958;2022-09-01T07:39:05;99137.80;;;17.84
68510;BMP180;55512;50.102;19.958;2022-09-01T07:41:31;99140.80;;;17.94
68510;BMP180;55512;50.102;19.958;2022-09-01T07:44:01;99144.40;;;18.00
68510;BMP180;55512;50.102;19.958;2022-09-01T07:46:30;99143.20;;;18.10
68510;BMP180;55512;50.102;19.958;2022-09-01T07:48:59;99138.60;;;18.20
68510;BMP180;55512;50.102;19.958;2022-09-01T07:51:27;99140.00;;;18.30
68510;BMP180;55512;50.102;19.958;2022-09-01T07:53:53;99138.00;;;18.32
68510;BMP180;55512;50.102;19.958;2022-09-01T07:56:21;99138.40;;;18.40
68510;BMP180;55512;50.102;19.958;2022-09-01T07:58:50;99135.40;;;18.40
68510;BMP180;55512;50.102;19.958;2022-09-01T08:01:22;99128.80;;;18.50
68510;BMP180;55512;50.102;19.958;2022-09-01T08:03:59;99131.80;;;18.60
68510;BMP180;55512;50.102;19.958;2022-09-01T08:06:27;99128.80;;;18.70
68510;BMP180;55512;50.102;19.958;2022-09-01T08:08:56;99133.00;;;18.80
68510;BMP180;55512;50.102;19.958;2022-09-01T08:11:29;99131.40;;;18.90
68510;BMP180;55512;50.102;19.958;2022-09-01T08:13:57;99133.80;;;18.90
68510;BMP180;55512;50.102;19.958;2022-09-01T08:16:28;99133.20;;;19.00
68510;BMP180;55512;50.102;19.958;2022-09-01T08:18:55;99129.60;;;19.04
68510;BMP180;55512;50.102;19.958;2022-09-01T08:21:23;99131.60;;;19.10
68510;BMP180;55512;50.102;19.958;2022-09-01T08:23:52;99134.00;;;19.20
68510;BMP180;55512;50.102;19.958;2022-09-01T08:26:22;99132.80;;;19.20
68510;BMP180;55512;50.102;19.958;2022-09-01T08:28:48;99132.20;;;19.20
68510;BMP180;55512;50.102;19.958;2022-09-01T08:31:17;99132.60;;;19.20
68510;BMP180;55512;50.102;19.958;2022-09-01T08:33:46;99132.00;;;19.10
68510;BMP180;55512;50.102;19.958;2022-09-01T08:36:15;99128.40;;;19.00
68510;BMP180;55512;50.102;19.958;2022-09-01T08:38:41;99122.80;;;18.90
68510;BMP180;55512;50.102;19.958;2022-09-01T08:44:40;99125.80;;;18.90
68510;BMP180;55512;50.102;19.958;2022-09-01T08:47:14;99120.20;;;18.90
68510;BMP180;55512;50.102;19.958;2022-09-01T08:49:40;99122.20;;;18.80
68510;BMP180;55512;50.102;19.958;2022-09-01T08:55:09;99124.20;;;18.80
68510;BMP180;55512;50.102;19.958;2022-09-01T08:57:42;99122.60;;;18.80
68510;BMP180;55512;50.102;19.958;2022-09-01T09:00:14;99124.00;;;18.80
68510;BMP180;55512;50.102;19.958;2022-09-01T09:11:03;99119.00;;;18.70
68510;BMP180;55512;50.102;19.958;2022-09-01T09:14:06;99122.20;;;18.70
68510;BMP180;55512;50.102;19.958;2022-09-01T09:16:46;99117.40;;;18.78
68510;BMP180;55512;50.102;19.958;2022-09-01T09:19:34;99117.80;;;18.80
68510;BMP180;55512;50.102;19.958;2022-09-01T09:22:06;99120.20;;;18.80
68510;BMP180;55512;50.102;19.958;2022-09-01T09:27:40;99119.60;;;18.80
68510;BMP180;55512;50.102;19.958;2022-09-01T09:30:28;99110.80;;;18.80
68510;BMP180;55512;50.102;19.958;2022-09-01T09:33:02;99108.20;;;18.90
68510;BMP180;55512;50.102;19.958;2022-09-01T09:43:45;99110.00;;;18.90
68510;BMP180;55512;50.102;19.958;2022-09-01T09:51:56;99118.60;;;18.90
68510;BMP180;55512;50.102;19.958;2022-09-01T09:54:31;99114.60;;;18.90
68510;BMP180;55512;50.102;19.958;2022-09-01T10:02:35;99112.40;;;18.80
68510;BMP180;55512;50.102;19.958;2022-09-01T10:05:59;99115.40;;;18.80
68510;BMP180;55512;50.102;19.958;2022-09-01T10:10:53;99111.00;;;19.08
68510;BMP180;55512;50.102;19.958;2022-09-01T10:13:23;99110.20;;;19.20
68510;BMP180;55512;50.102;19.958;2022-09-01T10:15:53;99113.00;;;19.40
68510;BMP180;55512;50.102;19.958;2022-09-01T10:18:23;99108.80;;;19.52
68510;BMP180;55512;50.102;19.958;2022-09-01T10:21:21;99112.20;;;19.60
68510;BMP180;55512;50.102;19.958;2022-09-01T10:23:48;99106.80;;;19.70
68510;BMP180;55512;50.102;19.958;2022-09-01T10:26:31;99101.20;;;19.80
68510;BMP180;55512;50.102;19.958;2022-09-01T10:29:22;99106.40;;;19.98
68510;BMP180;55512;50.102;19.958;2022-09-01T10:31:52;99101.20;;;20.04
68510;BMP180;55512;50.102;19.958;2022-09-01T10:34:20;99109.40;;;20.20
68510;BMP180;55512;50.102;19.958;2022-09-01T10:36:47;99106.80;;;20.10
68510;BMP180;55512;50.102;19.958;2022-09-01T10:39:17;99105.60;;;20.20
68510;BMP180;55512;50.102;19.958;2022-09-01T10:44:32;99106.40;;;20.20
68510;BMP180;55512;50.102;19.958;2022-09-01T10:47:11;99103.20;;;20.20
68510;BMP180;55512;50.102;19.958;2022-09-01T10:55:26;99097.40;;;20.50
68510;BMP180;55512;50.102;19.958;2022-09-01T10:58:32;99094.40;;;20.60
68510;BMP180;55512;50.102;19.958;2022-09-01T11:01:00;99092.60;;;20.60
68510;BMP180;55512;50.102;19.958;2022-09-01T11:03:37;99099.00;;;20.70
68510;BMP180;55512;50.102;19.958;2022-09-01T11:06:07;99102.60;;;20.70
68510;BMP180;55512;50.102;19.958;2022-09-01T11:11:03;99093.40;;;20.44
68510;BMP180;55512;50.102;19.958;2022-09-01T11:13:45;99094.00;;;20.40
68510;BMP180;55512;50.102;19.958;2022-09-01T11:16:39;99093.20;;;20.40
68510;BMP180;55512;50.102;19.958;2022-09-01T11:22:29;99090.00;;;20.42
68510;BMP180;55512;50.102;19.958;2022-09-01T11:25:34;99089.80;;;20.44
68510;BMP180;55512;50.102;19.958;2022-09-01T11:30:56;99101.20;;;20.30
68510;BMP180;55512;50.102;19.958;2022-09-01T11:42:23;99078.80;;;19.94
68510;BMP180;55512;50.102;19.958;2022-09-01T11:45:26;99079.40;;;20.00
68510;BMP180;55512;50.102;19.958;2022-09-01T11:47:58;99082.00;;;20.00
68510;BMP180;55512;50.102;19.958;2022-09-01T11:50:33;99073.20;;;20.00
68510;BMP180;55512;50.102;19.958;2022-09-01T11:53:04;99079.00;;;20.00
68510;BMP180;55512;50.102;19.958;2022-09-01T11:55:39;99079.40;;;20.00
68510;BMP180;55512;50.102;19.958;2022-09-01T11:58:10;99078.00;;;20.00
68510;BMP180;55512;50.102;19.958;2022-09-01T12:00:40;99080.00;;;20.00
68510;BMP180;55512;50.102;19.958;2022-09-01T12:03:25;99079.20;;;20.02
68510;BMP180;55512;50.102;19.958;2022-09-01T12:05:58;99081.60;;;20.10
68510;BMP180;55512;50.102;19.958;2022-09-01T12:08:29;99076.40;;;20.20
68510;BMP180;55512;50.102;19.958;2022-09-01T12:11:26;99074.60;;;20.30
68510;BMP180;55512;50.102;19.958;2022-09-01T12:14:20;99070.60;;;20.38
68510;BMP180;55512;50.102;19.958;2022-09-01T12:17:03;99062.20;;;20.40
68510;BMP180;55512;50.102;19.958;2022-09-01T12:19:33;99068.80;;;20.40
68510;BMP180;55512;50.102;19.958;2022-09-01T12:22:13;99069.40;;;20.50
68510;BMP180;55512;50.102;19.958;2022-09-01T12:24:45;99071.20;;;20.60
68510;BMP180;55512;50.102;19.958;2022-09-01T12:27:12;99072.80;;;20.60
68510;BMP180;55512;50.102;19.958;2022-09-01T12:29:39;99068.20;;;20.60
68510;BMP180;55512;50.102;19.958;2022-09-01T12:32:05;99065.40;;;20.60
68510;BMP180;55512;50.102;19.958;2022-09-01T12:34:43;99057.60;;;20.64
68510;BMP180;55512;50.102;19.958;2022-09-01T12:37:22;99065.20;;;20.78
68510;BMP180;55512;50.102;19.958;2022-09-01T12:39:55;99065.00;;;20.80
68510;BMP180;55512;50.102;19.958;2022-09-01T12:42:31;99071.60;;;20.90
68510;BMP180;55512;50.102;19.958;2022-09-01T12:45:02;99061.20;;;21.00
68510;BMP180;55512;50.102;19.958;2022-09-01T12:52:59;99056.80;;;21.00
68510;BMP180;55512;50.102;19.958;2022-09-01T12:55:34;99056.20;;;20.90
68510;BMP180;55512;50.102;19.958;2022-09-01T12:58:05;99064.80;;;20.90
68510;BMP180;55512;50.102;19.958;2022-09-01T13:00:35;99065.00;;;20.80
68510;BMP180;55512;50.102;19.958;2022-09-01T13:05:36;99063.60;;;20.80
68510;BMP180;55512;50.102;19.958;2022-09-01T13:08:09;99066.00;;;20.90
68510;BMP180;55512;50.102;19.958;2022-09-01T13:10:48;99059.80;;;20.90
68510;BMP180;55512;50.102;19.958;2022-09-01T13:13:16;99065.40;;;21.00
68510;BMP180;55512;50.102;19.958;2022-09-01T13:15:55;99064.80;;;21.00
68510;BMP180;55512;50.102;19.958;2022-09-01T13:18:25;99069.00;;;21.10
68510;BMP180;55512;50.102;19.958;2022-09-01T13:20:51;99070.20;;;21.10
68510;BMP180;55512;50.102;19.958;2022-09-01T13:23:18;99071.80;;;21.20
68510;BMP180;55512;50.102;19.958;2022-09-01T13:25:44;99071.00;;;21.20
68510;BMP180;55512;50.102;19.958;2022-09-01T13:28:12;99070.80;;;21.10
68510;BMP180;55512;50.102;19.958;2022-09-01T13:30:39;99070.20;;;21.10
68510;BMP180;55512;50.102;19.958;2022-09-01T13:33:05;99069.60;;;21.00
68510;BMP180;55512;50.102;19.958;2022-09-01T13:35:31;99070.20;;;20.90
68510;BMP180;55512;50.102;19.958;2022-09-01T13:37:57;99072.60;;;20.84
68510;BMP180;55512;50.102;19.958;2022-09-01T13:40:22;99073.20;;;20.80
68510;BMP180;55512;50.102;19.958;2022-09-01T13:42:52;99067.60;;;20.90
68510;BMP180;55512;50.102;19.958;2022-09-01T13:45:22;99063.00;;;21.00
68510;BMP180;55512;50.102;19.958;2022-09-01T13:47:52;99061.80;;;21.20
68510;BMP180;55512;50.102;19.958;2022-09-01T13:50:20;99065.60;;;21.40
68510;BMP180;55512;50.102;19.958;2022-09-01T13:52:53;99070.20;;;21.50
68510;BMP180;55512;50.102;19.958;2022-09-01T13:55:27;99075.80;;;21.50
68510;BMP180;55512;50.102;19.958;2022-09-01T13:57:54;99070.80;;;21.30
68510;BMP180;55512;50.102;19.958;2022-09-01T14:00:28;99077.40;;;21.20
68510;BMP180;55512;50.102;19.958;2022-09-01T14:02:57;99072.60;;;21.10
68510;BMP180;55512;50.102;19.958;2022-09-01T14:05:31;99068.80;;;21.08
68510;BMP180;55512;50.102;19.958;2022-09-01T14:07:59;99070.00;;;21.10
68510;BMP180;55512;50.102;19.958;2022-09-01T14:10:27;99068.00;;;21.20
68510;BMP180;55512;50.102;19.958;2022-09-01T14:12:54;99070.20;;;21.32
68510;BMP180;55512;50.102;19.958;2022-09-01T14:15:21;99065.80;;;21.40
68510;BMP180;55512;50.102;19.958;2022-09-01T14:17:51;99066.80;;;21.50
68510;BMP180;55512;50.102;19.958;2022-09-01T14:20:20;99066.20;;;21.50
68510;BMP180;55512;50.102;19.958;2022-09-01T14:22:48;99065.60;;;21.68
68510;BMP180;55512;50.102;19.958;2022-09-01T14:25:16;99071.40;;;21.70
68510;BMP180;55512;50.102;19.958;2022-09-01T14:27:43;99070.60;;;21.70
68510;BMP180;55512;50.102;19.958;2022-09-01T14:30:18;99069.80;;;21.70
68510;BMP180;55512;50.102;19.958;2022-09-01T14:32:45;99067.00;;;21.80
68510;BMP180;55512;50.102;19.958;2022-09-01T14:35:12;99071.00;;;21.90
68510;BMP180;55512;50.102;19.958;2022-09-01T14:37:39;99065.20;;;21.90
68510;BMP180;55512;50.102;19.958;2022-09-01T14:40:08;99062.40;;;22.00
68510;BMP180;55512;50.102;19.958;2022-09-01T14:42:35;99063.80;;;22.10
68510;BMP180;55512;50.102;19.958;2022-09-01T14:45:03;99064.60;;;22.20
68510;BMP180;55512;50.102;19.958;2022-09-01T14:47:29;99057.80;;;22.30
68510;BMP180;55512;50.102;19.958;2022-09-01T14:49:56;99062.20;;;22.40
68510;BMP180;55512;50.102;19.958;2022-09-01T14:52:21;99062.20;;;22.64
68510;BMP180;55512;50.102;19.958;2022-09-01T14:54:47;99061.80;;;22.94
68510;BMP180;55512;50.102;19.958;2022-09-01T14:57:14;99064.80;;;23.20
68510;BMP180;55512;50.102;19.958;2022-09-01T14:59:40;99060.40;;;23.32
68510;BMP180;55512;50.102;19.958;2022-09-01T15:02:08;99062.60;;;23.50
68510;BMP180;55512;50.102;19.958;2022-09-01T15:04:35;99062.40;;;23.50
68510;BMP180;55512;50.102;19.958;2022-09-01T15:07:02;99061.00;;;23.50
68510;BMP180;55512;50.102;19.958;2022-09-01T15:09:30;99067.80;;;23.68
68510;BMP180;55512;50.102;19.958;2022-09-01T15:11:55;99068.80;;;23.84
68510;BMP180;55512;50.102;19.958;2022-09-01T15:14:22;99069.20;;;23.86
68510;BMP180;55512;50.102;19.958;2022-09-01T15:16:47;99069.40;;;23.70
68510;BMP180;55512;50.102;19.958;2022-09-01T15:19:13;99071.00;;;23.50
68510;BMP180;55512;50.102;19.958;2022-09-01T15:21:42;99073.80;;;23.24
68510;BMP180;55512;50.102;19.958;2022-09-01T15:24:09;99074.80;;;23.10
68510;BMP180;55512;50.102;19.958;2022-09-01T15:26:36;99075.60;;;22.80
68510;BMP180;55512;50.102;19.958;2022-09-01T15:29:03;99077.00;;;22.56
68510;BMP180;55512;50.102;19.958;2022-09-01T15:31:30;99076.00;;;22.40
68510;BMP180;55512;50.102;19.958;2022-09-01T15:33:59;99078.00;;;22.20
68510;BMP180;55512;50.102;19.958;2022-09-01T15:36:27;99079.00;;;22.20